createdAt,value
2022-09-16T00:01:32.860Z,8.18
2022-09-16T00:03:59.572Z,8.70
2022-09-16T00:06:28.951Z,9.00
2022-09-16T00:08:58.302Z,7.97
2022-09-16T00:11:25.347Z,8.73
2022-09-16T00:13:52.118Z,8.77
2022-09-16T00:16:22.891Z,9.05
2022-09-16T00:18:54.249Z,9.95
2022-09-16T00:21:21.364Z,12.43
2022-09-16T00:23:48.157Z,9.48
2022-09-16T00:26:14.947Z,8.65
2022-09-16T00:28:41.694Z,11.50
2022-09-16T00:31:08.731Z,9.30
2022-09-16T00:33:35.633Z,8.45
2022-09-16T00:36:11.286Z,12.63
2022-09-16T00:38:38.286Z,9.70
2022-09-16T00:41:05.693Z,7.13
2022-09-16T00:43:53.382Z,8.90
2022-09-16T00:46:34.242Z,11.10
2022-09-16T00:49:13.058Z,7.60
2022-09-16T00:51:41.777Z,11.75
2022-09-16T00:54:10.018Z,8.18
2022-09-16T00:56:40.293Z,8.00
2022-09-16T00:59:38.926Z,7.43
2022-09-16T01:02:14.461Z,10.55
2022-09-16T01:04:49.369Z,18.23
2022-09-16T01:07:17.278Z,9.05
2022-09-16T01:09:44.023Z,7.53
2022-09-16T01:12:10.723Z,11.07
2022-09-16T01:14:37.455Z,10.50
2022-09-16T01:17:27.343Z,10.50
2022-09-16T01:20:09.297Z,10.90
2022-09-16T01:22:44.625Z,11.83
2022-09-16T01:25:42.224Z,11.80
2022-09-16T01:28:23.870Z,14.27
2022-09-16T01:30:58.410Z,12.02
2022-09-16T01:33:40.486Z,9.95
2022-09-16T01:36:30.029Z,8.32
2022-09-16T01:39:17.803Z,8.95
2022-09-16T01:42:02.644Z,11.80
2022-09-16T01:44:50.503Z,10.95
2022-09-16T01:47:35.694Z,9.65
2022-09-16T01:50:12.955Z,12.65
2022-09-16T01:52:43.622Z,9.07
2022-09-16T01:55:22.802Z,9.15
2022-09-16T01:58:06.316Z,14.10
2022-09-16T02:00:34.043Z,10.07
2022-09-16T02:03:09.968Z,9.40
2022-09-16T02:05:46.482Z,11.77
2022-09-16T02:08:20.033Z,9.98
2022-09-16T02:10:55.594Z,11.77
2022-09-16T02:13:25.924Z,12.95
2022-09-16T02:15:54.847Z,12.55
2022-09-16T02:18:30.714Z,10.65
2022-09-16T02:21:01.072Z,10.20
2022-09-16T02:23:32.747Z,10.27
2022-09-16T02:26:01.797Z,10.88
2022-09-16T02:28:37.870Z,12.52
2022-09-16T02:31:07.915Z,12.32
2022-09-16T02:33:57.884Z,13.07
2022-09-16T02:36:27.507Z,11.10
2022-09-16T02:39:09.093Z,11.68
2022-09-16T02:41:38.771Z,12.88
2022-09-16T02:44:05.627Z,11.80
2022-09-16T02:47:04.851Z,14.48
2022-09-16T02:49:55.061Z,11.02
2022-09-16T02:52:48.324Z,13.07
2022-09-16T02:55:30.018Z,9.65
2022-09-16T02:57:57.130Z,18.42
2022-09-16T03:00:24.286Z,11.38
2022-09-16T03:02:53.142Z,9.25
2022-09-16T03:05:20.008Z,10.47
2022-09-16T03:07:46.800Z,11.45
2022-09-16T03:10:13.900Z,9.10
2022-09-16T03:12:57.065Z,8.55
2022-09-16T03:16:10.682Z,11.00
2022-09-16T03:19:02.732Z,9.45
2022-09-16T03:21:47.970Z,14.00
2022-09-16T03:24:54.422Z,11.25
2022-09-16T03:27:31.304Z,10.05
2022-09-16T03:30:05.162Z,11.07
2022-09-16T03:32:38.975Z,11.90
2022-09-16T03:35:17.618Z,11.18
2022-09-16T03:37:46.235Z,9.87
2022-09-16T03:40:16.021Z,9.07
2022-09-16T03:42:44.120Z,8.60
2022-09-16T03:45:16.266Z,12.75
2022-09-16T03:47:44.501Z,8.23
2022-09-16T03:50:11.224Z,10.90
2022-09-16T03:52:38.228Z,8.23
2022-09-16T03:55:05.958Z,10.43
2022-09-16T03:57:32.985Z,10.55
2022-09-16T04:00:00.133Z,8.65
2022-09-16T04:02:26.944Z,9.40
2022-09-16T04:04:53.686Z,9.87
2022-09-16T04:07:20.500Z,8.43
2022-09-16T04:09:47.232Z,13.57
2022-09-16T04:12:14.186Z,9.30
2022-09-16T04:14:40.936Z,11.30
2022-09-16T04:17:07.717Z,11.63
2022-09-16T04:19:34.431Z,13.18
2022-09-16T04:22:01.150Z,11.05
2022-09-16T04:24:27.886Z,9.55
2022-09-16T04:26:54.585Z,10.55
2022-09-16T04:29:21.286Z,10.40
2022-09-16T04:31:48.033Z,10.98
2022-09-16T04:34:14.881Z,11.52
2022-09-16T04:36:41.600Z,11.60
2022-09-16T04:39:08.592Z,12.63
2022-09-16T04:41:35.305Z,11.85
2022-09-16T04:44:02.273Z,8.98
2022-09-16T04:46:30.875Z,11.23
2022-09-16T04:48:58.313Z,11.18
2022-09-16T04:51:26.320Z,9.23
2022-09-16T04:53:55.512Z,8.80
2022-09-16T04:56:25.286Z,7.13
2022-09-16T04:58:55.519Z,9.10
2022-09-16T05:01:24.978Z,12.25
2022-09-16T05:03:53.927Z,9.77
2022-09-16T05:06:25.849Z,8.60
2022-09-16T05:08:53.981Z,9.73
2022-09-16T05:11:26.210Z,8.93
2022-09-16T05:13:53.004Z,10.17
2022-09-16T05:16:22.178Z,10.35
2022-09-16T05:18:50.591Z,10.35
2022-09-16T05:21:22.004Z,9.00
2022-09-16T05:23:49.668Z,8.33
2022-09-16T05:26:25.406Z,7.43
2022-09-16T05:28:52.892Z,7.47
2022-09-16T05:31:23.911Z,8.77
2022-09-16T05:34:15.386Z,9.77
2022-09-16T05:36:43.645Z,7.68
2022-09-16T05:39:22.821Z,7.28
2022-09-16T05:41:54.318Z,11.18
2022-09-16T05:44:21.112Z,9.68
2022-09-16T05:46:47.806Z,7.05
2022-09-16T05:49:14.587Z,8.63
2022-09-16T05:51:41.454Z,7.97
2022-09-16T05:54:08.591Z,8.63
2022-09-16T05:56:35.361Z,8.57
2022-09-16T05:59:02.357Z,8.55
2022-09-16T06:01:34.572Z,9.02
2022-09-16T06:04:03.495Z,8.55
2022-09-16T06:06:36.064Z,8.30
2022-09-16T06:09:10.244Z,8.40
2022-09-16T06:11:39.810Z,10.30
2022-09-16T06:14:06.897Z,8.48
2022-09-16T06:16:34.519Z,6.95
2022-09-16T06:19:03.503Z,6.68
2022-09-16T06:21:30.576Z,8.33
2022-09-16T06:23:57.964Z,8.73
2022-09-16T06:26:26.369Z,8.00
2022-09-16T06:28:54.190Z,7.63
2022-09-16T06:31:23.627Z,8.93
2022-09-16T06:33:51.071Z,9.30
2022-09-16T06:36:23.430Z,8.93
2022-09-16T06:38:50.824Z,9.07
2022-09-16T06:41:19.459Z,6.97
2022-09-16T06:43:46.602Z,8.85
2022-09-16T06:46:18.690Z,7.82
2022-09-16T06:48:48.019Z,8.43
2022-09-16T06:51:17.004Z,6.25
2022-09-16T06:53:44.997Z,8.50
2022-09-16T06:56:14.740Z,9.53
2022-09-16T06:58:43.866Z,8.73
2022-09-16T07:01:12.957Z,8.98
2022-09-16T07:03:42.087Z,9.65
2022-09-16T07:06:10.247Z,7.27
2022-09-16T07:08:38.056Z,7.55
2022-09-16T07:11:11.346Z,6.10
2022-09-16T07:13:38.963Z,8.68
2022-09-16T07:16:13.420Z,7.00
2022-09-16T07:18:41.206Z,10.15
2022-09-16T07:21:09.989Z,7.88
2022-09-16T07:23:38.045Z,8.65
2022-09-16T07:26:08.464Z,8.15
2022-09-16T07:28:36.519Z,8.75
2022-09-16T07:31:05.435Z,7.53
2022-09-16T07:33:35.711Z,7.93
2022-09-16T07:36:03.221Z,13.77
2022-09-16T07:38:30.226Z,9.32
2022-09-16T07:41:03.766Z,9.20
2022-09-16T07:43:30.480Z,8.98
2022-09-16T07:45:58.274Z,8.85
2022-09-16T07:48:25.445Z,8.80
2022-09-16T07:51:00.272Z,10.73
2022-09-16T07:53:29.578Z,10.43
2022-09-16T07:56:11.101Z,9.00
2022-09-16T07:58:37.883Z,8.00
2022-09-16T08:01:05.934Z,8.60
2022-09-16T08:03:34.316Z,9.45
2022-09-16T08:06:02.650Z,8.18
2022-09-16T08:08:30.459Z,10.43
2022-09-16T08:10:58.838Z,10.63
2022-09-16T08:13:26.975Z,9.65
2022-09-16T08:15:54.328Z,9.48
2022-09-16T08:18:21.438Z,10.20
2022-09-16T08:20:48.351Z,11.40
2022-09-16T08:23:15.048Z,11.40
2022-09-16T08:25:41.906Z,8.38
2022-09-16T08:28:16.769Z,11.52
2022-09-16T08:30:44.212Z,10.45
2022-09-16T08:33:10.980Z,14.90
2022-09-16T08:35:37.741Z,14.30
2022-09-16T08:38:04.623Z,12.30
2022-09-16T08:40:35.155Z,12.15
2022-09-16T08:43:32.952Z,14.23
2022-09-16T08:46:09.346Z,11.95
2022-09-16T08:48:45.724Z,12.40
2022-09-16T08:51:17.746Z,10.68
2022-09-16T08:53:54.600Z,9.50
2022-09-16T08:56:24.553Z,9.30
2022-09-16T08:58:56.851Z,8.85
2022-09-16T09:01:35.434Z,11.50
2022-09-16T09:04:03.134Z,10.95
2022-09-16T09:06:57.081Z,8.15
2022-09-16T09:09:23.821Z,10.70
2022-09-16T09:12:25.376Z,10.07
2022-09-16T09:15:13.426Z,8.98
2022-09-16T09:18:13.946Z,10.18
2022-09-16T09:21:01.672Z,12.85
2022-09-16T09:23:56.078Z,10.57
2022-09-16T09:26:31.821Z,12.43
2022-09-16T09:29:34.931Z,10.40
2022-09-16T09:32:20.677Z,11.45
2022-09-16T09:34:59.762Z,10.10
2022-09-16T09:38:02.649Z,12.48
2022-09-16T09:40:47.444Z,9.70
2022-09-16T09:43:36.304Z,15.63
2022-09-16T09:46:08.477Z,13.10
2022-09-16T09:48:47.034Z,14.40
2022-09-16T09:51:29.160Z,10.00
2022-09-16T09:54:01.780Z,11.45
2022-09-16T09:56:36.252Z,11.80
2022-09-16T09:59:21.655Z,11.25
2022-09-16T10:01:54.309Z,9.30
2022-09-16T10:04:21.124Z,10.15
2022-09-16T10:06:49.590Z,9.50
2022-09-16T10:09:17.372Z,9.35
2022-09-16T10:11:53.771Z,9.67
2022-09-16T10:14:30.285Z,8.15
2022-09-16T10:17:00.937Z,9.38
2022-09-16T10:19:29.379Z,9.75
2022-09-16T10:22:09.255Z,9.90
2022-09-16T10:24:38.877Z,10.30
2022-09-16T10:27:27.280Z,9.13
2022-09-16T10:30:14.332Z,7.50
2022-09-16T10:32:55.868Z,12.38
2022-09-16T10:35:25.718Z,9.35
2022-09-16T10:37:57.356Z,8.10
2022-09-16T10:40:25.542Z,8.23
2022-09-16T10:42:54.531Z,13.70
2022-09-16T10:45:30.184Z,6.27
2022-09-16T10:48:07.061Z,9.73
2022-09-16T10:50:34.444Z,11.90
2022-09-16T10:53:01.216Z,10.13
2022-09-16T10:55:33.445Z,9.48
2022-09-16T10:58:18.202Z,9.30
2022-09-16T11:01:09.899Z,7.07
2022-09-16T11:03:48.962Z,13.45
2022-09-16T11:06:18.761Z,9.85
2022-09-16T11:09:04.250Z,7.72
2022-09-16T11:12:18.580Z,10.02
2022-09-16T11:15:03.202Z,7.50
2022-09-16T11:17:48.769Z,8.95
2022-09-16T11:20:46.141Z,9.40
2022-09-16T11:23:18.678Z,8.60
2022-09-16T11:26:13.829Z,7.60
2022-09-16T11:28:57.398Z,7.97
2022-09-16T11:31:36.271Z,8.60
2022-09-16T11:34:08.657Z,7.55
2022-09-16T11:36:51.274Z,9.00
2022-09-16T11:39:37.694Z,9.23
2022-09-16T11:42:14.108Z,11.23
2022-09-16T11:45:07.858Z,9.48
2022-09-16T11:47:43.599Z,7.68
2022-09-16T11:50:40.929Z,8.98
2022-09-16T11:53:08.536Z,9.10
2022-09-16T11:55:57.689Z,9.93
2022-09-16T11:58:32.058Z,12.97
2022-09-16T12:01:06.891Z,11.18
2022-09-16T12:03:47.064Z,10.07
2022-09-16T12:06:19.718Z,7.28
2022-09-16T12:09:03.717Z,11.60
2022-09-16T12:11:46.365Z,13.43
2022-09-16T12:14:28.958Z,8.32
2022-09-16T12:17:04.565Z,10.02
2022-09-16T12:19:38.894Z,10.38
2022-09-16T12:22:11.144Z,10.50
2022-09-16T12:24:46.023Z,9.88
2022-09-16T12:27:25.969Z,10.33
2022-09-16T12:29:58.542Z,16.40
2022-09-16T12:33:10.709Z,8.15
2022-09-16T12:35:49.866Z,14.90
2022-09-16T12:38:19.170Z,10.02
2022-09-16T12:41:06.822Z,10.60
2022-09-16T12:43:39.256Z,10.23
2022-09-16T12:46:31.535Z,8.93
2022-09-16T12:49:06.316Z,11.18
2022-09-16T12:51:59.035Z,8.13
2022-09-16T12:55:08.995Z,9.02
2022-09-16T12:57:51.522Z,8.65
2022-09-16T13:00:24.323Z,8.23
2022-09-16T13:02:58.994Z,11.97
2022-09-16T13:05:33.461Z,8.35
2022-09-16T13:08:07.099Z,9.60
2022-09-16T13:10:54.917Z,10.63
2022-09-16T13:13:32.078Z,10.02
2022-09-16T13:16:01.946Z,10.90
2022-09-16T13:18:44.239Z,9.40
2022-09-16T13:21:22.645Z,8.40
2022-09-16T13:24:01.620Z,9.20
2022-09-16T13:26:39.431Z,8.73
2022-09-16T13:29:26.905Z,9.02
2022-09-16T13:31:53.734Z,9.52
2022-09-16T13:34:20.624Z,10.30
2022-09-16T13:36:47.722Z,11.38
2022-09-16T13:39:27.612Z,10.43
2022-09-16T13:41:54.439Z,7.75
2022-09-16T13:44:39.248Z,7.05
2022-09-16T13:47:11.810Z,8.15
2022-09-16T13:49:52.960Z,6.97
2022-09-16T13:52:24.481Z,8.48
2022-09-16T13:55:12.393Z,8.70
2022-09-16T13:58:02.776Z,9.50
2022-09-16T14:00:37.332Z,9.60
2022-09-16T14:03:31.634Z,10.07
2022-09-16T14:06:37.630Z,10.83
2022-09-16T14:09:16.371Z,8.15
2022-09-16T14:12:16.256Z,6.40
2022-09-16T14:14:47.455Z,6.25
2022-09-16T14:17:25.710Z,5.70
2022-09-16T14:20:00.428Z,6.82
2022-09-16T14:22:27.365Z,6.57
2022-09-16T14:25:05.887Z,6.55
2022-09-16T14:27:40.229Z,7.55
2022-09-16T14:30:27.438Z,8.57
2022-09-16T14:32:54.230Z,9.50
2022-09-16T14:35:25.677Z,8.15
2022-09-16T14:38:00.461Z,7.50
2022-09-16T14:40:28.497Z,5.47
2022-09-16T14:43:01.419Z,10.32
2022-09-16T14:45:30.282Z,8.18
2022-09-16T14:47:58.870Z,7.43
2022-09-16T14:50:30.101Z,7.68
2022-09-16T14:53:02.312Z,7.50
2022-09-16T14:55:31.472Z,9.65
2022-09-16T14:57:59.379Z,7.30
2022-09-16T15:00:46.465Z,8.35
2022-09-16T15:03:20.424Z,8.70
2022-09-16T15:05:47.601Z,7.85
2022-09-16T15:08:29.813Z,5.85
2022-09-16T15:11:00.724Z,8.00
2022-09-16T15:13:34.427Z,6.35
2022-09-16T15:16:08.665Z,5.68
2022-09-16T15:18:42.378Z,5.82
2022-09-16T15:21:17.790Z,6.50
2022-09-16T15:23:48.715Z,5.30
2022-09-16T15:26:20.725Z,5.30
2022-09-16T15:29:02.585Z,5.40
2022-09-16T15:31:35.130Z,8.05
2022-09-16T15:34:05.381Z,6.85
2022-09-16T15:36:41.518Z,5.70
2022-09-16T15:39:34.290Z,5.90
2022-09-16T15:42:20.301Z,6.25
2022-09-16T15:44:57.372Z,6.10
2022-09-16T15:47:26.786Z,8.40
2022-09-16T15:50:14.082Z,5.60
2022-09-16T15:53:09.082Z,3.53
2022-09-16T15:55:41.967Z,4.33
2022-09-16T15:59:37.474Z,3.95
2022-09-16T16:05:21.694Z,4.70
2022-09-16T16:07:54.039Z,6.20
2022-09-16T16:10:31.155Z,4.10
2022-09-16T16:15:46.589Z,5.30
2022-09-16T16:18:13.344Z,3.90
2022-09-16T16:20:40.277Z,5.80
2022-09-16T16:23:07.015Z,7.18
2022-09-16T16:25:33.734Z,6.28
2022-09-16T16:28:00.489Z,5.80
2022-09-16T16:30:27.219Z,4.35
2022-09-16T16:32:53.929Z,7.23
2022-09-16T16:37:49.895Z,0
2022-09-16T16:38:07.271Z,6.95
2022-09-16T16:40:34.043Z,6.03
2022-09-16T16:43:00.848Z,9.30
2022-09-16T16:45:27.552Z,6.50
2022-09-16T16:47:54.254Z,6.85
2022-09-16T16:50:21.291Z,8.18
2022-09-16T16:52:50.980Z,11.10
2022-09-16T16:55:17.859Z,8.38
2022-09-16T16:57:44.547Z,7.50
2022-09-16T17:00:12.132Z,7.38
2022-09-16T17:02:39.148Z,7.38
2022-09-16T17:05:06.616Z,7.72
2022-09-16T17:07:33.786Z,8.15
2022-09-16T17:10:00.552Z,8.80
2022-09-16T17:12:27.762Z,11.00
2022-09-16T17:14:54.769Z,10.13
2022-09-16T17:17:21.509Z,6.47
2022-09-16T17:19:48.254Z,10.23
2022-09-16T17:22:15.035Z,7.25
2022-09-16T17:24:41.753Z,6.85
2022-09-16T17:27:08.454Z,7.10
2022-09-16T17:29:35.235Z,8.93
2022-09-16T17:32:02.205Z,8.18
2022-09-16T17:34:28.952Z,7.40
2022-09-16T17:36:55.673Z,8.55
2022-09-16T17:39:22.944Z,8.55
2022-09-16T17:41:50.507Z,9.13
2022-09-16T17:44:18.496Z,9.20
2022-09-16T17:46:46.153Z,6.88
2022-09-16T17:49:18.656Z,9.63
2022-09-16T17:51:45.450Z,9.52
2022-09-16T17:54:12.467Z,7.40
2022-09-16T17:56:39.359Z,9.05
2022-09-16T17:59:06.066Z,9.02
2022-09-16T18:01:32.774Z,9.38
2022-09-16T18:03:59.746Z,6.97
2022-09-16T18:06:35.197Z,8.20
2022-09-16T18:09:04.355Z,10.57
2022-09-16T18:11:34.678Z,9.00
2022-09-16T18:16:50.681Z,7.78
2022-09-16T18:22:04.145Z,7.28
2022-09-16T18:24:30.838Z,7.60
2022-09-16T18:26:57.534Z,11.27
2022-09-16T18:29:14.394Z,0
2022-09-16T18:29:24.412Z,13.40
2022-09-16T18:31:51.106Z,11.43
2022-09-16T18:34:17.837Z,16.70
2022-09-16T18:39:31.529Z,10.52
2022-09-16T18:41:58.279Z,9.57
2022-09-16T18:44:25.138Z,9.27
2022-09-16T18:46:52.965Z,11.30
2022-09-16T18:52:06.921Z,10.07
2022-09-16T18:54:33.644Z,11.00
2022-09-16T18:57:01.079Z,9.55
2022-09-16T18:59:26.038Z,0
2022-09-16T19:02:16.722Z,15.13
2022-09-16T19:07:30.152Z,13.82
2022-09-16T19:09:56.870Z,15.23
2022-09-16T19:12:23.569Z,13.10
2022-09-16T19:14:50.267Z,12.60
2022-09-16T19:17:17.043Z,45.60
2022-09-16T19:19:43.759Z,16.50
2022-09-16T19:22:10.791Z,14.83
2022-09-16T19:24:37.630Z,9.55
2022-09-16T19:27:04.479Z,12.90
2022-09-16T19:29:31.173Z,11.20
2022-09-16T19:31:57.887Z,12.20
2022-09-16T19:34:24.616Z,9.75
2022-09-16T19:36:51.388Z,12.38
2022-09-16T19:39:18.903Z,10.55
2022-09-16T19:41:45.650Z,10.93
2022-09-16T19:44:15.417Z,11.27
2022-09-16T19:46:43.013Z,13.50
2022-09-16T19:49:14.852Z,14.20
2022-09-16T19:51:41.681Z,16.60
2022-09-16T19:54:08.391Z,13.70
2022-09-16T19:56:35.100Z,14.63
2022-09-16T19:59:02.049Z,13.05
2022-09-16T20:00:59.097Z,0
2022-09-16T20:01:33.374Z,16.35
2022-09-16T20:04:01.668Z,15.88
2022-09-16T20:06:32.360Z,12.45
2022-09-16T20:09:01.238Z,13.07
2022-09-16T20:11:32.198Z,15.23
2022-09-16T20:14:01.897Z,17.67
2022-09-16T20:16:31.867Z,13.20
2022-09-16T20:21:45.387Z,13.40
2022-09-16T20:27:04.582Z,14.30
2022-09-16T20:29:31.264Z,17.45
2022-09-16T20:31:58.099Z,32.72
2022-09-16T20:34:25.036Z,22.35
2022-09-16T20:36:51.878Z,21.88
2022-09-16T20:39:18.649Z,18.20
2022-09-16T20:41:45.474Z,13.88
2022-09-16T20:44:14.593Z,20.20
2022-09-16T20:46:41.321Z,16.80
2022-09-16T20:49:08.531Z,17.70
2022-09-16T20:51:35.361Z,21.63
2022-09-16T20:54:08.487Z,24.90
2022-09-16T20:56:38.775Z,26.92
2022-09-16T21:01:54.007Z,18.80
2022-09-16T21:04:20.853Z,21.35
2022-09-16T21:06:47.997Z,17.65
2022-09-16T21:09:15.587Z,19.25
2022-09-16T21:11:42.470Z,18.33
2022-09-16T21:14:09.241Z,18.73
2022-09-16T21:16:38.364Z,23.25
2022-09-16T21:21:54.221Z,24.38
2022-09-16T21:24:20.934Z,19.60
2022-09-16T21:26:47.673Z,16.88
2022-09-16T21:29:17.767Z,19.83
2022-09-16T21:31:44.649Z,23.08
2022-09-16T21:34:17.713Z,22.60
2022-09-16T21:36:45.371Z,24.88
2022-09-16T21:42:00.654Z,24.23
2022-09-16T21:43:39.262Z,0
2022-09-16T21:44:27.391Z,18.58
2022-09-16T21:49:40.951Z,21.15
2022-09-16T21:54:54.312Z,25.23
2022-09-16T21:57:21.113Z,21.58
2022-09-16T21:59:47.890Z,24.25
2022-09-16T22:02:14.640Z,19.07
2022-09-16T22:04:41.421Z,21.73
2022-09-16T22:07:08.134Z,20.67
2022-09-16T22:09:34.838Z,35.03
2022-09-16T22:12:05.131Z,23.80
2022-09-16T22:14:31.839Z,22.93
2022-09-16T22:16:58.553Z,24.00
2022-09-16T22:19:25.314Z,19.87
2022-09-16T22:24:38.715Z,25.65
2022-09-16T22:29:52.325Z,25.10
2022-09-16T22:35:06.327Z,23.40
2022-09-16T22:37:33.053Z,22.65
2022-09-16T22:39:59.837Z,22.13
2022-09-16T22:42:26.573Z,20.40
2022-09-16T22:44:53.285Z,20.17
2022-09-16T22:47:19.999Z,21.35
2022-09-16T22:49:46.794Z,22.02
2022-09-16T22:52:13.478Z,25.63
2022-09-16T22:54:40.215Z,24.42
2022-09-16T22:57:07.027Z,21.52
2022-09-16T22:59:33.942Z,24.17
2022-09-16T23:00:47.403Z,0
2022-09-16T23:02:00.726Z,22.05
2022-09-16T23:04:27.629Z,20.60
2022-09-16T23:06:54.400Z,25.13
2022-09-16T23:12:08.371Z,23.38
2022-09-16T23:17:21.709Z,23.40
2022-09-16T23:19:48.443Z,21.50
2022-09-16T23:22:15.174Z,24.27
2022-09-16T23:24:41.921Z,21.17
2022-09-16T23:27:08.680Z,21.77
2022-09-16T23:29:35.409Z,23.80
2022-09-16T23:32:02.383Z,18.90
2022-09-16T23:34:29.122Z,19.20
2022-09-16T23:36:55.847Z,23.63
2022-09-16T23:39:22.582Z,24.73
2022-09-16T23:41:49.327Z,27.35
2022-09-16T23:44:16.348Z,19.55
2022-09-16T23:46:43.241Z,21.25
2022-09-16T23:49:10.749Z,18.77
2022-09-16T23:51:37.842Z,26.30
2022-09-16T23:54:04.815Z,21.08
2022-09-16T23:56:31.561Z,23.98
2022-09-16T23:58:59.112Z,26.02
